sensor_id;sensor_type;location;lat;lon;timestamp;P1;durP1;ratioP1;P2;durP2;ratioP2
13832;SDS011;6987;19.472;-99.276;2024-02-23T00:02:01;6.38;;;2.58;;
13832;SDS011;6987;19.472;-99.276;2024-02-23T00:04:30;2.78;;;2.25;;
13832;SDS011;6987;19.472;-99.276;2024-02-23T00:07:01;5.88;;;2.83;;
13832;SDS011;6987;19.472;-99.276;2024-02-23T00:09:30;2.85;;;2.20;;
13832;SDS011;6987;19.472;-99.276;2024-02-23T00:11:59;4.45;;;2.63;;
13832;SDS011;6987;19.472;-99.276;2024-02-23T00:14:28;4.57;;;2.25;;
13832;SDS011;6987;19.472;-99.276;2024-02-23T00:16:58;4.00;;;2.55;;
13832;SDS011;6987;19.472;-99.276;2024-02-23T00:19:27;4.38;;;2.40;;
13832;SDS011;6987;19.472;-99.276;2024-02-23T00:21:56;4.85;;;2.78;;
13832;SDS011;6987;19.472;-99.276;2024-02-23T00:24:27;6.55;;;3.20;;
13832;SDS011;6987;19.472;-99.276;2024-02-23T00:26:56;2.30;;;2.10;;
13832;SDS011;6987;19.472;-99.276;2024-02-23T00:29:25;2.50;;;2.30;;
13832;SDS011;6987;19.472;-99.276;2024-02-23T00:31:54;10.88;;;3.08;;
13832;SDS011;6987;19.472;-99.276;2024-02-23T00:34:23;5.57;;;2.20;;
13832;SDS011;6987;19.472;-99.276;2024-02-23T00:36:53;6.55;;;2.20;;
13832;SDS011;6987;19.472;-99.276;2024-02-23T00:39:21;2.90;;;2.03;;
13832;SDS011;6987;19.472;-99.276;2024-02-23T00:41:52;5.57;;;2.72;;
13832;SDS011;6987;19.472;-99.276;2024-02-23T00:44:21;2.95;;;2.08;;
13832;SDS011;6987;19.472;-99.276;2024-02-23T00:46:50;3.50;;;2.15;;
13832;SDS011;6987;19.472;-99.276;2024-02-23T00:49:19;6.35;;;2.30;;
13832;SDS011;6987;19.472;-99.276;2024-02-23T00:51:48;5.22;;;2.53;;
13832;SDS011;6987;19.472;-99.276;2024-02-23T00:54:17;4.88;;;2.38;;
13832;SDS011;6987;19.472;-99.276;2024-02-23T00:56:46;3.95;;;2.08;;
13832;SDS011;6987;19.472;-99.276;2024-02-23T00:59:17;6.65;;;2.35;;
13832;SDS011;6987;19.472;-99.276;2024-02-23T01:01:46;4.82;;;2.15;;
13832;SDS011;6987;19.472;-99.276;2024-02-23T01:04:15;4.10;;;2.25;;
13832;SDS011;6987;19.472;-99.276;2024-02-23T01:06:44;3.88;;;2.35;;
13832;SDS011;6987;19.472;-99.276;2024-02-23T01:09:13;2.90;;;2.40;;
13832;SDS011;6987;19.472;-99.276;2024-02-23T01:11:46;2.65;;;2.55;;
13832;SDS011;6987;19.472;-99.276;2024-02-23T01:14:17;5.78;;;2.53;;
13832;SDS011;6987;19.472;-99.276;2024-02-23T01:16:46;3.67;;;2.10;;
13832;SDS011;6987;19.472;-99.276;2024-02-23T01:19:27;18.55;;;3.58;;
13832;SDS011;6987;19.472;-99.276;2024-02-23T01:21:56;15.07;;;3.50;;
13832;SDS011;6987;19.472;-99.276;2024-02-23T01:24:26;6.45;;;2.97;;
13832;SDS011;6987;19.472;-99.276;2024-02-23T01:26:55;17.00;;;2.58;;
13832;SDS011;6987;19.472;-99.276;2024-02-23T01:29:27;2.50;;;2.30;;
13832;SDS011;6987;19.472;-99.276;2024-02-23T01:31:56;3.47;;;2.40;;
13832;SDS011;6987;19.472;-99.276;2024-02-23T01:34:24;6.85;;;2.20;;
13832;SDS011;6987;19.472;-99.276;2024-02-23T01:36:54;4.13;;;2.30;;
13832;SDS011;6987;19.472;-99.276;2024-02-23T01:39:22;7.43;;;2.72;;
13832;SDS011;6987;19.472;-99.276;2024-02-23T01:41:51;4.57;;;3.10;;
13832;SDS011;6987;19.472;-99.276;2024-02-23T01:44:20;3.75;;;2.92;;
13832;SDS011;6987;19.472;-99.276;2024-02-23T01:46:51;3.67;;;2.83;;
13832;SDS011;6987;19.472;-99.276;2024-02-23T01:49:25;6.13;;;3.20;;
13832;SDS011;6987;19.472;-99.276;2024-02-23T01:51:57;15.43;;;6.00;;
13832;SDS011;6987;19.472;-99.276;2024-02-23T01:54:26;18.85;;;5.70;;
13832;SDS011;6987;19.472;-99.276;2024-02-23T01:56:56;26.50;;;5.93;;
13832;SDS011;6987;19.472;-99.276;2024-02-23T01:59:25;26.40;;;5.88;;
13832;SDS011;6987;19.472;-99.276;2024-02-23T02:01:56;17.17;;;5.88;;
13832;SDS011;6987;19.472;-99.276;2024-02-23T02:04:42;24.48;;;6.50;;
13832;SDS011;6987;19.472;-99.276;2024-02-23T02:07:11;27.65;;;7.05;;
13832;SDS011;6987;19.472;-99.276;2024-02-23T02:09:40;25.58;;;7.60;;
13832;SDS011;6987;19.472;-99.276;2024-02-23T02:12:09;26.55;;;9.45;;
13832;SDS011;6987;19.472;-99.276;2024-02-23T02:14:38;35.25;;;8.55;;
13832;SDS011;6987;19.472;-99.276;2024-02-23T02:17:09;27.73;;;11.00;;
13832;SDS011;6987;19.472;-99.276;2024-02-23T02:19:38;22.70;;;10.40;;
13832;SDS011;6987;19.472;-99.276;2024-02-23T02:22:06;27.48;;;11.27;;
13832;SDS011;6987;19.472;-99.276;2024-02-23T02:24:35;20.50;;;10.57;;
13832;SDS011;6987;19.472;-99.276;2024-02-23T02:27:06;28.50;;;10.18;;
13832;SDS011;6987;19.472;-99.276;2024-02-23T02:29:35;33.38;;;10.70;;
13832;SDS011;6987;19.472;-99.276;2024-02-23T02:32:04;25.08;;;10.55;;
13832;SDS011;6987;19.472;-99.276;2024-02-23T02:34:37;16.38;;;9.35;;
13832;SDS011;6987;19.472;-99.276;2024-02-23T02:37:06;19.00;;;9.60;;
13832;SDS011;6987;19.472;-99.276;2024-02-23T02:39:36;16.05;;;8.27;;
13832;SDS011;6987;19.472;-99.276;2024-02-23T02:42:05;14.60;;;8.80;;
13832;SDS011;6987;19.472;-99.276;2024-02-23T02:44:33;20.02;;;8.68;;
13832;SDS011;6987;19.472;-99.276;2024-02-23T02:47:03;20.60;;;7.78;;
13832;SDS011;6987;19.472;-99.276;2024-02-23T02:49:31;11.45;;;7.57;;
13832;SDS011;6987;19.472;-99.276;2024-02-23T02:52:02;18.35;;;7.30;;
13832;SDS011;6987;19.472;-99.276;2024-02-23T02:54:31;21.00;;;6.72;;
13832;SDS011;6987;19.472;-99.276;2024-02-23T02:57:00;14.40;;;5.20;;
13832;SDS011;6987;19.472;-99.276;2024-02-23T02:59:29;11.32;;;6.50;;
13832;SDS011;6987;19.472;-99.276;2024-02-23T03:01:57;7.70;;;5.35;;
13832;SDS011;6987;19.472;-99.276;2024-02-23T03:04:26;31.00;;;6.82;;
13832;SDS011;6987;19.472;-99.276;2024-02-23T03:06:55;13.60;;;5.40;;
13832;SDS011;6987;19.472;-99.276;2024-02-23T03:09:26;14.52;;;5.20;;
13832;SDS011;6987;19.472;-99.276;2024-02-23T03:11:55;15.35;;;5.82;;
13832;SDS011;6987;19.472;-99.276;2024-02-23T03:14:25;18.83;;;4.85;;
13832;SDS011;6987;19.472;-99.276;2024-02-23T03:16:54;13.27;;;4.35;;
13832;SDS011;6987;19.472;-99.276;2024-02-23T03:19:22;8.70;;;4.60;;
13832;SDS011;6987;19.472;-99.276;2024-02-23T03:21:51;11.95;;;4.28;;
13832;SDS011;6987;19.472;-99.276;2024-02-23T03:24:20;8.10;;;4.07;;
13832;SDS011;6987;19.472;-99.276;2024-02-23T03:26:52;8.55;;;4.57;;
13832;SDS011;6987;19.472;-99.276;2024-02-23T03:29:21;11.05;;;4.30;;
13832;SDS011;6987;19.472;-99.276;2024-02-23T03:31:50;10.68;;;4.05;;
13832;SDS011;6987;19.472;-99.276;2024-02-23T03:34:19;7.43;;;3.95;;
13832;SDS011;6987;19.472;-99.276;2024-02-23T03:36:49;7.93;;;3.78;;
13832;SDS011;6987;19.472;-99.276;2024-02-23T03:39:17;5.53;;;3.40;;
13832;SDS011;6987;19.472;-99.276;2024-02-23T03:41:46;11.98;;;4.15;;
13832;SDS011;6987;19.472;-99.276;2024-02-23T03:44:17;10.52;;;3.70;;
13832;SDS011;6987;19.472;-99.276;2024-02-23T03:46:45;6.38;;;3.38;;
13832;SDS011;6987;19.472;-99.276;2024-02-23T03:49:14;8.68;;;3.75;;
13832;SDS011;6987;19.472;-99.276;2024-02-23T03:51:43;9.13;;;3.63;;
13832;SDS011;6987;19.472;-99.276;2024-02-23T03:54:12;8.60;;;3.67;;
13832;SDS011;6987;19.472;-99.276;2024-02-23T03:56:41;4.63;;;3.28;;
13832;SDS011;6987;19.472;-99.276;2024-02-23T03:59:10;6.40;;;3.17;;
13832;SDS011;6987;19.472;-99.276;2024-02-23T04:01:41;6.78;;;3.38;;
13832;SDS011;6987;19.472;-99.276;2024-02-23T04:04:10;11.02;;;3.60;;
13832;SDS011;6987;19.472;-99.276;2024-02-23T04:06:38;6.82;;;3.72;;
13832;SDS011;6987;19.472;-99.276;2024-02-23T04:09:07;9.35;;;4.25;;
13832;SDS011;6987;19.472;-99.276;2024-02-23T04:11:36;5.40;;;3.40;;
13832;SDS011;6987;19.472;-99.276;2024-02-23T04:14:05;17.15;;;3.20;;
13832;SDS011;6987;19.472;-99.276;2024-02-23T04:16:34;5.15;;;3.50;;
13832;SDS011;6987;19.472;-99.276;2024-02-23T04:19:04;13.10;;;3.50;;
13832;SDS011;6987;19.472;-99.276;2024-02-23T04:21:33;11.45;;;3.60;;
13832;SDS011;6987;19.472;-99.276;2024-02-23T04:24:02;6.38;;;3.30;;
13832;SDS011;6987;19.472;-99.276;2024-02-23T04:26:32;8.10;;;2.97;;
13832;SDS011;6987;19.472;-99.276;2024-02-23T04:29:01;14.82;;;3.47;;
13832;SDS011;6987;19.472;-99.276;2024-02-23T04:31:30;6.15;;;3.33;;
13832;SDS011;6987;19.472;-99.276;2024-02-23T04:33:59;14.45;;;3.10;;
13832;SDS011;6987;19.472;-99.276;2024-02-23T04:36:29;5.70;;;3.00;;
13832;SDS011;6987;19.472;-99.276;2024-02-23T04:38:58;7.15;;;3.25;;
13832;SDS011;6987;19.472;-99.276;2024-02-23T04:41:28;5.35;;;2.97;;
13832;SDS011;6987;19.472;-99.276;2024-02-23T04:43:57;3.40;;;3.08;;
13832;SDS011;6987;19.472;-99.276;2024-02-23T04:46:26;7.15;;;3.28;;
13832;SDS011;6987;19.472;-99.276;2024-02-23T04:48:55;18.95;;;3.70;;
13832;SDS011;6987;19.472;-99.276;2024-02-23T04:51:24;9.02;;;3.55;;
13832;SDS011;6987;19.472;-99.276;2024-02-23T04:53:55;8.93;;;3.30;;
13832;SDS011;6987;19.472;-99.276;2024-02-23T04:56:23;9.55;;;3.85;;
13832;SDS011;6987;19.472;-99.276;2024-02-23T04:58:52;10.10;;;3.50;;
13832;SDS011;6987;19.472;-99.276;2024-02-23T05:01:21;9.43;;;3.50;;
13832;SDS011;6987;19.472;-99.276;2024-02-23T05:03:50;13.40;;;3.40;;
13832;SDS011;6987;19.472;-99.276;2024-02-23T05:06:19;6.72;;;3.47;;
13832;SDS011;6987;19.472;-99.276;2024-02-23T05:08:48;7.10;;;3.55;;
13832;SDS011;6987;19.472;-99.276;2024-02-23T05:11:18;8.65;;;3.70;;
13832;SDS011;6987;19.472;-99.276;2024-02-23T05:13:47;8.40;;;3.42;;
13832;SDS011;6987;19.472;-99.276;2024-02-23T05:16:16;7.57;;;3.05;;
13832;SDS011;6987;19.472;-99.276;2024-02-23T05:18:45;9.48;;;3.30;;
13832;SDS011;6987;19.472;-99.276;2024-02-23T05:21:14;10.32;;;3.67;;
13832;SDS011;6987;19.472;-99.276;2024-02-23T05:23:43;3.63;;;3.28;;
13832;SDS011;6987;19.472;-99.276;2024-02-23T05:26:14;6.32;;;3.40;;
13832;SDS011;6987;19.472;-99.276;2024-02-23T05:28:44;6.95;;;3.25;;
13832;SDS011;6987;19.472;-99.276;2024-02-23T05:31:13;3.65;;;3.08;;
13832;SDS011;6987;19.472;-99.276;2024-02-23T05:33:43;7.22;;;3.08;;
13832;SDS011;6987;19.472;-99.276;2024-02-23T05:36:11;5.72;;;2.92;;
13832;SDS011;6987;19.472;-99.276;2024-02-23T05:38:41;5.35;;;2.78;;
13832;SDS011;6987;19.472;-99.276;2024-02-23T05:41:11;5.13;;;3.20;;
13832;SDS011;6987;19.472;-99.276;2024-02-23T05:43:41;6.25;;;3.03;;
13832;SDS011;6987;19.472;-99.276;2024-02-23T05:46:12;7.18;;;3.60;;
13832;SDS011;6987;19.472;-99.276;2024-02-23T05:48:41;3.92;;;3.53;;
13832;SDS011;6987;19.472;-99.276;2024-02-23T05:51:10;7.00;;;2.80;;
13832;SDS011;6987;19.472;-99.276;2024-02-23T05:53:39;7.03;;;2.92;;
13832;SDS011;6987;19.472;-99.276;2024-02-23T05:56:09;4.80;;;2.72;;
13832;SDS011;6987;19.472;-99.276;2024-02-23T05:58:38;4.63;;;3.00;;
13832;SDS011;6987;19.472;-99.276;2024-02-23T06:01:07;9.38;;;2.85;;
13832;SDS011;6987;19.472;-99.276;2024-02-23T06:03:37;3.90;;;2.58;;
13832;SDS011;6987;19.472;-99.276;2024-02-23T06:06:07;5.38;;;2.85;;
13832;SDS011;6987;19.472;-99.276;2024-02-23T06:08:36;8.63;;;3.20;;
13832;SDS011;6987;19.472;-99.276;2024-02-23T06:11:04;10.00;;;2.78;;
13832;SDS011;6987;19.472;-99.276;2024-02-23T06:13:33;8.00;;;3.05;;
13832;SDS011;6987;19.472;-99.276;2024-02-23T06:16:02;7.72;;;2.85;;
13832;SDS011;6987;19.472;-99.276;2024-02-23T06:18:31;9.50;;;3.42;;
13832;SDS011;6987;19.472;-99.276;2024-02-23T06:21:02;6.18;;;2.55;;
13832;SDS011;6987;19.472;-99.276;2024-02-23T06:23:31;15.52;;;3.00;;
13832;SDS011;6987;19.472;-99.276;2024-02-23T06:26:00;6.82;;;2.92;;
13832;SDS011;6987;19.472;-99.276;2024-02-23T06:28:28;13.25;;;3.20;;
13832;SDS011;6987;19.472;-99.276;2024-02-23T06:30:58;8.07;;;2.80;;
13832;SDS011;6987;19.472;-99.276;2024-02-23T06:33:30;3.13;;;2.13;;
13832;SDS011;6987;19.472;-99.276;2024-02-23T06:35:59;7.05;;;2.80;;
13832;SDS011;6987;19.472;-99.276;2024-02-23T06:38:30;6.32;;;2.63;;
13832;SDS011;6987;19.472;-99.276;2024-02-23T06:40:59;5.45;;;2.40;;
13832;SDS011;6987;19.472;-99.276;2024-02-23T06:43:28;6.55;;;2.28;;
13832;SDS011;6987;19.472;-99.276;2024-02-23T06:45:57;6.00;;;2.38;;
13832;SDS011;6987;19.472;-99.276;2024-02-23T06:48:27;3.13;;;2.30;;
13832;SDS011;6987;19.472;-99.276;2024-02-23T06:50:58;7.57;;;2.50;;
13832;SDS011;6987;19.472;-99.276;2024-02-23T06:53:27;4.68;;;2.50;;
13832;SDS011;6987;19.472;-99.276;2024-02-23T06:55:57;5.47;;;2.30;;
13832;SDS011;6987;19.472;-99.276;2024-02-23T06:58:27;2.85;;;2.08;;
13832;SDS011;6987;19.472;-99.276;2024-02-23T07:00:55;4.60;;;1.80;;
13832;SDS011;6987;19.472;-99.276;2024-02-23T07:03:24;2.03;;;1.83;;
13832;SDS011;6987;19.472;-99.276;2024-02-23T07:05:53;2.45;;;2.15;;
13832;SDS011;6987;19.472;-99.276;2024-02-23T07:08:22;4.38;;;2.15;;
13832;SDS011;6987;19.472;-99.276;2024-02-23T07:10:51;5.22;;;2.08;;
13832;SDS011;6987;19.472;-99.276;2024-02-23T07:13:21;3.67;;;2.00;;
13832;SDS011;6987;19.472;-99.276;2024-02-23T07:15:51;4.13;;;1.92;;
13832;SDS011;6987;19.472;-99.276;2024-02-23T07:18:21;3.88;;;1.67;;
13832;SDS011;6987;19.472;-99.276;2024-02-23T07:23:37;3.20;;;1.90;;
13832;SDS011;6987;19.472;-99.276;2024-02-23T07:26:05;2.63;;;2.35;;
13832;SDS011;6987;19.472;-99.276;2024-02-23T07:28:36;4.45;;;2.47;;
13832;SDS011;6987;19.472;-99.276;2024-02-23T07:31:05;6.65;;;2.20;;
13832;SDS011;6987;19.472;-99.276;2024-02-23T07:33:43;6.05;;;2.25;;
13832;SDS011;6987;19.472;-99.276;2024-02-23T07:36:14;2.83;;;2.10;;
13832;SDS011;6987;19.472;-99.276;2024-02-23T07:38:42;3.08;;;2.03;;
13832;SDS011;6987;19.472;-99.276;2024-02-23T07:41:12;3.22;;;2.10;;
13832;SDS011;6987;19.472;-99.276;2024-02-23T07:43:42;5.22;;;2.17;;
13832;SDS011;6987;19.472;-99.276;2024-02-23T07:46:11;6.75;;;2.30;;
13832;SDS011;6987;19.472;-99.276;2024-02-23T07:48:42;4.47;;;1.92;;
13832;SDS011;6987;19.472;-99.276;2024-02-23T07:51:11;6.57;;;2.20;;
13832;SDS011;6987;19.472;-99.276;2024-02-23T07:53:39;2.22;;;2.05;;
13832;SDS011;6987;19.472;-99.276;2024-02-23T07:56:08;2.92;;;2.30;;
13832;SDS011;6987;19.472;-99.276;2024-02-23T07:58:38;2.13;;;1.92;;
13832;SDS011;6987;19.472;-99.276;2024-02-23T08:01:09;2.28;;;2.08;;
13832;SDS011;6987;19.472;-99.276;2024-02-23T08:03:38;2.78;;;2.30;;
13832;SDS011;6987;19.472;-99.276;2024-02-23T08:06:07;2.58;;;1.75;;
13832;SDS011;6987;19.472;-99.276;2024-02-23T08:08:35;4.15;;;1.85;;
13832;SDS011;6987;19.472;-99.276;2024-02-23T08:11:04;3.10;;;2.10;;
13832;SDS011;6987;19.472;-99.276;2024-02-23T08:13:33;5.82;;;1.70;;
13832;SDS011;6987;19.472;-99.276;2024-02-23T08:16:02;6.97;;;2.08;;
13832;SDS011;6987;19.472;-99.276;2024-02-23T08:18:33;2.10;;;1.77;;
13832;SDS011;6987;19.472;-99.276;2024-02-23T08:21:02;4.35;;;1.95;;
13832;SDS011;6987;19.472;-99.276;2024-02-23T08:23:31;4.28;;;1.85;;
13832;SDS011;6987;19.472;-99.276;2024-02-23T08:26:00;2.25;;;1.80;;
13832;SDS011;6987;19.472;-99.276;2024-02-23T08:28:29;3.00;;;2.42;;
13832;SDS011;6987;19.472;-99.276;2024-02-23T08:30:58;3.63;;;2.08;;
13832;SDS011;6987;19.472;-99.276;2024-02-23T08:33:27;2.65;;;1.98;;
13832;SDS011;6987;19.472;-99.276;2024-02-23T08:35:58;6.55;;;2.40;;
13832;SDS011;6987;19.472;-99.276;2024-02-23T08:38:27;2.70;;;1.63;;
13832;SDS011;6987;19.472;-99.276;2024-02-23T08:40:55;6.22;;;2.10;;
13832;SDS011;6987;19.472;-99.276;2024-02-23T08:43:24;5.00;;;1.98;;
13832;SDS011;6987;19.472;-99.276;2024-02-23T08:45:54;9.95;;;1.80;;
13832;SDS011;6987;19.472;-99.276;2024-02-23T08:48:23;2.97;;;1.80;;
13832;SDS011;6987;19.472;-99.276;2024-02-23T08:50:51;4.95;;;2.42;;
13832;SDS011;6987;19.472;-99.276;2024-02-23T08:53:22;3.33;;;1.70;;
13832;SDS011;6987;19.472;-99.276;2024-02-23T08:55:51;4.53;;;1.85;;
13832;SDS011;6987;19.472;-99.276;2024-02-23T08:58:20;4.03;;;1.73;;
13832;SDS011;6987;19.472;-99.276;2024-02-23T09:00:48;2.08;;;1.55;;
13832;SDS011;6987;19.472;-99.276;2024-02-23T09:03:17;5.93;;;2.10;;
13832;SDS011;6987;19.472;-99.276;2024-02-23T09:05:46;3.38;;;1.95;;
13832;SDS011;6987;19.472;-99.276;2024-02-23T09:08:15;4.38;;;2.00;;
13832;SDS011;6987;19.472;-99.276;2024-02-23T09:10:45;2.33;;;1.65;;
13832;SDS011;6987;19.472;-99.276;2024-02-23T09:13:15;1.65;;;1.55;;
13832;SDS011;6987;19.472;-99.276;2024-02-23T09:15:43;3.67;;;2.47;;
13832;SDS011;6987;19.472;-99.276;2024-02-23T09:18:12;3.05;;;1.63;;
13832;SDS011;6987;19.472;-99.276;2024-02-23T09:20:41;1.50;;;1.40;;
13832;SDS011;6987;19.472;-99.276;2024-02-23T09:23:10;1.48;;;1.38;;
13832;SDS011;6987;19.472;-99.276;2024-02-23T09:25:39;5.78;;;1.92;;
13832;SDS011;6987;19.472;-99.276;2024-02-23T09:28:10;2.22;;;1.63;;
13832;SDS011;6987;19.472;-99.276;2024-02-23T09:30:40;4.20;;;1.40;;
13832;SDS011;6987;19.472;-99.276;2024-02-23T09:33:09;3.33;;;2.00;;
13832;SDS011;6987;19.472;-99.276;2024-02-23T09:35:38;4.32;;;2.03;;
13832;SDS011;6987;19.472;-99.276;2024-02-23T09:38:07;5.50;;;1.90;;
13832;SDS011;6987;19.472;-99.276;2024-02-23T09:40:35;10.60;;;1.60;;
13832;SDS011;6987;19.472;-99.276;2024-02-23T09:43:04;3.17;;;1.40;;
13832;SDS011;6987;19.472;-99.276;2024-02-23T09:45:38;1.67;;;1.55;;
13832;SDS011;6987;19.472;-99.276;2024-02-23T09:48:07;2.53;;;1.73;;
13832;SDS011;6987;19.472;-99.276;2024-02-23T09:50:37;3.33;;;1.90;;
13832;SDS011;6987;19.472;-99.276;2024-02-23T09:53:07;4.88;;;2.17;;
13832;SDS011;6987;19.472;-99.276;2024-02-23T09:55:40;4.40;;;2.00;;
13832;SDS011;6987;19.472;-99.276;2024-02-23T09:58:09;4.55;;;1.80;;
13832;SDS011;6987;19.472;-99.276;2024-02-23T10:00:43;4.28;;;1.83;;
13832;SDS011;6987;19.472;-99.276;2024-02-23T10:03:12;4.15;;;1.65;;
13832;SDS011;6987;19.472;-99.276;2024-02-23T10:05:41;2.17;;;1.92;;
13832;SDS011;6987;19.472;-99.276;2024-02-23T10:08:11;2.53;;;2.10;;
13832;SDS011;6987;19.472;-99.276;2024-02-23T10:10:40;6.55;;;1.83;;
13832;SDS011;6987;19.472;-99.276;2024-02-23T10:13:08;2.78;;;1.95;;
13832;SDS011;6987;19.472;-99.276;2024-02-23T10:15:37;3.50;;;2.17;;
13832;SDS011;6987;19.472;-99.276;2024-02-23T10:18:08;6.30;;;2.13;;
13832;SDS011;6987;19.472;-99.276;2024-02-23T10:20:37;4.82;;;2.50;;
13832;SDS011;6987;19.472;-99.276;2024-02-23T10:23:07;12.65;;;2.83;;
13832;SDS011;6987;19.472;-99.276;2024-02-23T10:25:35;7.75;;;2.58;;
13832;SDS011;6987;19.472;-99.276;2024-02-23T10:28:05;15.20;;;2.65;;
13832;SDS011;6987;19.472;-99.276;2024-02-23T10:30:36;13.25;;;2.80;;
13832;SDS011;6987;19.472;-99.276;2024-02-23T10:33:05;3.60;;;2.40;;
13832;SDS011;6987;19.472;-99.276;2024-02-23T10:35:36;7.97;;;2.53;;
13832;SDS011;6987;19.472;-99.276;2024-02-23T10:38:08;10.95;;;3.10;;
13832;SDS011;6987;19.472;-99.276;2024-02-23T10:40:37;12.13;;;3.25;;
13832;SDS011;6987;19.472;-99.276;2024-02-23T10:43:08;10.98;;;3.55;;
13832;SDS011;6987;19.472;-99.276;2024-02-23T10:45:41;12.40;;;3.22;;
13832;SDS011;6987;19.472;-99.276;2024-02-23T10:48:10;12.75;;;2.60;;
13832;SDS011;6987;19.472;-99.276;2024-02-23T10:50:42;13.10;;;2.97;;
13832;SDS011;6987;19.472;-99.276;2024-02-23T10:53:11;12.63;;;2.88;;
13832;SDS011;6987;19.472;-99.276;2024-02-23T10:55:41;7.32;;;2.50;;
13832;SDS011;6987;19.472;-99.276;2024-02-23T10:58:12;10.30;;;3.15;;
13832;SDS011;6987;19.472;-99.276;2024-02-23T11:00:41;13.95;;;2.35;;
13832;SDS011;6987;19.472;-99.276;2024-02-23T11:03:12;11.23;;;2.53;;
13832;SDS011;6987;19.472;-99.276;2024-02-23T11:05:44;6.75;;;2.58;;
13832;SDS011;6987;19.472;-99.276;2024-02-23T11:08:17;4.53;;;2.25;;
13832;SDS011;6987;19.472;-99.276;2024-02-23T11:10:49;7.95;;;2.80;;
13832;SDS011;6987;19.472;-99.276;2024-02-23T11:13:19;8.80;;;2.28;;
13832;SDS011;6987;19.472;-99.276;2024-02-23T11:16:01;2.55;;;2.33;;
13832;SDS011;6987;19.472;-99.276;2024-02-23T11:18:30;7.70;;;2.72;;
13832;SDS011;6987;19.472;-99.276;2024-02-23T11:21:02;3.10;;;2.03;;
13832;SDS011;6987;19.472;-99.276;2024-02-23T11:23:39;11.55;;;2.85;;
13832;SDS011;6987;19.472;-99.276;2024-02-23T11:26:09;8.88;;;2.72;;
13832;SDS011;6987;19.472;-99.276;2024-02-23T11:28:41;18.42;;;2.70;;
13832;SDS011;6987;19.472;-99.276;2024-02-23T11:31:12;8.70;;;2.70;;
13832;SDS011;6987;19.472;-99.276;2024-02-23T11:33:47;5.60;;;2.50;;
13832;SDS011;6987;19.472;-99.276;2024-02-23T11:36:24;6.82;;;2.85;;
13832;SDS011;6987;19.472;-99.276;2024-02-23T11:38:56;11.52;;;2.55;;
13832;SDS011;6987;19.472;-99.276;2024-02-23T11:41:26;4.97;;;2.47;;
13832;SDS011;6987;19.472;-99.276;2024-02-23T11:43:55;6.10;;;2.28;;
13832;SDS011;6987;19.472;-99.276;2024-02-23T11:46:24;5.47;;;2.25;;
13832;SDS011;6987;19.472;-99.276;2024-02-23T11:48:53;3.72;;;2.13;;
13832;SDS011;6987;19.472;-99.276;2024-02-23T11:51:22;10.05;;;2.78;;
13832;SDS011;6987;19.472;-99.276;2024-02-23T11:53:54;7.65;;;2.88;;
13832;SDS011;6987;19.472;-99.276;2024-02-23T11:56:26;9.82;;;2.70;;
13832;SDS011;6987;19.472;-99.276;2024-02-23T11:58:55;8.65;;;2.97;;
13832;SDS011;6987;19.472;-99.276;2024-02-23T12:01:24;7.05;;;2.78;;
13832;SDS011;6987;19.472;-99.276;2024-02-23T12:03:53;6.50;;;2.45;;
13832;SDS011;6987;19.472;-99.276;2024-02-23T12:06:25;10.63;;;3.03;;
13832;SDS011;6987;19.472;-99.276;2024-02-23T12:08:58;4.68;;;2.65;;
13832;SDS011;6987;19.472;-99.276;2024-02-23T12:11:27;11.57;;;2.65;;
13832;SDS011;6987;19.472;-99.276;2024-02-23T12:13:56;8.38;;;3.15;;
13832;SDS011;6987;19.472;-99.276;2024-02-23T12:16:25;10.07;;;2.58;;
13832;SDS011;6987;19.472;-99.276;2024-02-23T12:18:54;10.90;;;2.83;;
13832;SDS011;6987;19.472;-99.276;2024-02-23T12:21:23;12.27;;;3.65;;
13832;SDS011;6987;19.472;-99.276;2024-02-23T12:23:52;10.43;;;3.22;;
13832;SDS011;6987;19.472;-99.276;2024-02-23T12:26:24;8.02;;;3.65;;
13832;SDS011;6987;19.472;-99.276;2024-02-23T12:28:53;16.58;;;3.30;;
13832;SDS011;6987;19.472;-99.276;2024-02-23T12:31:28;9.98;;;3.42;;
13832;SDS011;6987;19.472;-99.276;2024-02-23T12:33:58;13.23;;;3.00;;
13832;SDS011;6987;19.472;-99.276;2024-02-23T12:36:27;14.27;;;3.38;;
13832;SDS011;6987;19.472;-99.276;2024-02-23T12:39:00;9.13;;;3.53;;
13832;SDS011;6987;19.472;-99.276;2024-02-23T12:41:31;9.43;;;3.80;;
13832;SDS011;6987;19.472;-99.276;2024-02-23T12:44:00;9.23;;;3.15;;
13832;SDS011;6987;19.472;-99.276;2024-02-23T12:46:29;5.07;;;2.63;;
13832;SDS011;6987;19.472;-99.276;2024-02-23T12:48:58;10.70;;;2.83;;
13832;SDS011;6987;19.472;-99.276;2024-02-23T12:51:27;4.90;;;2.85;;
13832;SDS011;6987;19.472;-99.276;2024-02-23T12:53:56;8.18;;;2.42;;
13832;SDS011;6987;19.472;-99.276;2024-02-23T12:56:25;7.63;;;3.08;;
13832;SDS011;6987;19.472;-99.276;2024-02-23T12:58:55;5.13;;;2.72;;
13832;SDS011;6987;19.472;-99.276;2024-02-23T13:01:24;8.68;;;3.40;;
13832;SDS011;6987;19.472;-99.276;2024-02-23T13:03:53;6.90;;;2.97;;
13832;SDS011;6987;19.472;-99.276;2024-02-23T13:06:22;6.18;;;3.25;;
13832;SDS011;6987;19.472;-99.276;2024-02-23T13:08:51;14.75;;;3.33;;
13832;SDS011;6987;19.472;-99.276;2024-02-23T13:11:20;10.93;;;3.13;;
13832;SDS011;6987;19.472;-99.276;2024-02-23T13:13:49;6.72;;;3.40;;
13832;SDS011;6987;19.472;-99.276;2024-02-23T13:16:20;14.98;;;4.03;;
13832;SDS011;6987;19.472;-99.276;2024-02-23T13:18:49;15.60;;;3.75;;
13832;SDS011;6987;19.472;-99.276;2024-02-23T13:21:18;23.38;;;4.10;;
13832;SDS011;6987;19.472;-99.276;2024-02-23T13:23:47;15.68;;;4.45;;
13832;SDS011;6987;19.472;-99.276;2024-02-23T13:26:16;17.27;;;4.35;;
13832;SDS011;6987;19.472;-99.276;2024-02-23T13:28:45;18.45;;;4.00;;
13832;SDS011;6987;19.472;-99.276;2024-02-23T13:31:13;14.98;;;4.72;;
13832;SDS011;6987;19.472;-99.276;2024-02-23T13:33:44;20.50;;;5.25;;
13832;SDS011;6987;19.472;-99.276;2024-02-23T13:36:13;25.08;;;4.90;;
13832;SDS011;6987;19.472;-99.276;2024-02-23T13:38:42;21.83;;;3.78;;
13832;SDS011;6987;19.472;-99.276;2024-02-23T13:41:11;17.63;;;4.68;;
13832;SDS011;6987;19.472;-99.276;2024-02-23T13:43:40;29.35;;;5.25;;
13832;SDS011;6987;19.472;-99.276;2024-02-23T13:46:09;18.40;;;4.13;;
13832;SDS011;6987;19.472;-99.276;2024-02-23T13:48:38;18.60;;;4.50;;
13832;SDS011;6987;19.472;-99.276;2024-02-23T13:51:09;13.82;;;4.13;;
13832;SDS011;6987;19.472;-99.276;2024-02-23T13:53:38;8.38;;;3.80;;
13832;SDS011;6987;19.472;-99.276;2024-02-23T13:56:07;24.70;;;4.78;;
13832;SDS011;6987;19.472;-99.276;2024-02-23T13:58:36;23.92;;;5.03;;
13832;SDS011;6987;19.472;-99.276;2024-02-23T14:01:05;22.50;;;4.38;;
13832;SDS011;6987;19.472;-99.276;2024-02-23T14:03:34;26.23;;;5.35;;
13832;SDS011;6987;19.472;-99.276;2024-02-23T14:06:03;17.42;;;4.47;;
13832;SDS011;6987;19.472;-99.276;2024-02-23T14:08:34;28.98;;;5.25;;
13832;SDS011;6987;19.472;-99.276;2024-02-23T14:11:04;14.20;;;3.55;;
13832;SDS011;6987;19.472;-99.276;2024-02-23T14:13:32;9.98;;;3.40;;
13832;SDS011;6987;19.472;-99.276;2024-02-23T14:16:01;3.30;;;2.10;;
13832;SDS011;6987;19.472;-99.276;2024-02-23T14:18:31;4.18;;;3.00;;
13832;SDS011;6987;19.472;-99.276;2024-02-23T14:21:03;5.53;;;2.45;;
13832;SDS011;6987;19.472;-99.276;2024-02-23T14:23:32;4.50;;;2.67;;
13832;SDS011;6987;19.472;-99.276;2024-02-23T14:26:02;3.13;;;2.78;;
13832;SDS011;6987;19.472;-99.276;2024-02-23T14:28:31;6.70;;;3.17;;
13832;SDS011;6987;19.472;-99.276;2024-02-23T14:31:00;4.68;;;3.05;;
13832;SDS011;6987;19.472;-99.276;2024-02-23T14:33:29;7.95;;;3.15;;
13832;SDS011;6987;19.472;-99.276;2024-02-23T14:35:59;21.33;;;4.07;;
13832;SDS011;6987;19.472;-99.276;2024-02-23T14:38:27;12.00;;;4.70;;
13832;SDS011;6987;19.472;-99.276;2024-02-23T14:40:56;14.98;;;5.47;;
13832;SDS011;6987;19.472;-99.276;2024-02-23T14:43:27;17.85;;;5.07;;
13832;SDS011;6987;19.472;-99.276;2024-02-23T14:45:57;19.77;;;5.82;;
13832;SDS011;6987;19.472;-99.276;2024-02-23T14:48:26;26.17;;;6.07;;